Time;durP1;ratioP1;P1;durP2;ratioP2;P2;SDS_P1;SDS_P2;PMS_P1;PMS_P2;Temp;Humidity;BMP_temperature;BMP_pressure;BME280_temperature;BME280_humidity;BME280_pressure;Samples;Min_cycle;Max_cycle;Signal;HPM_P1;HPM_P2
2021/05/06 00:02:03;;;;;;;0.30;0.30;;;15.40;69.90;;;;;;5090286;28;20231;-73
2021/05/06 00:34:14;;;;;;;0.47;0.38;;;15.30;70.20;;;;;;5103637;28;20570;-74
2021/05/06 00:36:40;;;;;;;0.43;0.43;;;15.30;70.40;;;;;;5104518;28;20174;-73
2021/05/06 00:39:10;;;;;;;1.77;0.50;;;15.20;70.40;;;;;;5105548;28;20780;-74
2021/05/06 00:55:02;;;;;;;1.65;0.50;;;15.00;71.30;;;;;;5101159;28;20218;-73
2021/05/06 01:05:27;;;;;;;1.60;0.57;;;14.80;72.20;;;;;;5102860;28;20273;-73
2021/05/06 01:12:49;;;;;;;1.08;0.52;;;14.50;72.80;;;;;;5099888;28;20221;-74
2021/05/06 01:15:15;;;;;;;1.08;0.52;;;14.50;72.80;;;;;;5103662;28;20200;-73
2021/05/06 01:17:41;;;;;;;3.83;0.50;;;14.40;72.80;;;;;;5106248;28;20187;-74
2021/05/06 01:20:08;;;;;;;3.80;0.60;;;14.30;73.00;;;;;;5098020;28;21022;-74
2021/05/06 01:22:34;;;;;;;0.75;0.47;;;14.30;73.30;;;;;;5101301;28;20193;-74
2021/05/06 01:25:00;;;;;;;0.63;0.55;;;14.30;73.20;;;;;;5101738;28;20177;-74
2021/05/06 01:27:57;;;;;;;3.90;0.70;;;14.30;73.70;;;;;;5106669;28;20551;-74
2021/05/06 01:30:35;;;;;;;2.10;0.82;;;14.20;73.40;;;;;;5098890;28;20186;-74
2021/05/06 01:33:04;;;;;;;1.90;0.65;;;14.10;73.80;;;;;;5099738;28;20575;-73
2021/05/06 01:41:03;;;;;;;3.00;0.80;;;13.90;74.00;;;;;;5105336;28;20182;-73
2021/05/06 01:59:06;;;;;;;0.45;0.30;;;13.60;74.90;;;;;;5100182;28;20207;-73
2021/05/06 02:01:32;;;;;;;1.10;0.50;;;13.60;75.50;;;;;;5105138;28;20207;-74
2021/05/06 02:03:58;;;;;;;0.85;0.52;;;13.60;75.00;;;;;;5103038;28;20260;-73
2021/05/06 02:06:23;;;;;;;0.75;0.70;;;13.60;75.20;;;;;;5103904;28;20242;-74
2021/05/06 02:08:49;;;;;;;0.40;0.40;;;13.50;75.10;;;;;;5100213;28;20185;-73
2021/05/06 02:11:16;;;;;;;1.13;0.63;;;13.50;75.20;;;;;;5106131;28;20313;-71
2021/05/06 02:13:41;;;;;;;0.35;0.35;;;13.50;75.30;;;;;;5097685;28;20216;-73
2021/05/06 02:16:15;;;;;;;0.50;0.40;;;13.50;75.50;;;;;;5104923;28;20650;-73
2021/05/06 02:18:41;;;;;;;0.40;0.40;;;13.40;75.90;;;;;;5100066;28;20242;-73
2021/05/06 02:21:10;;;;;;;0.40;0.40;;;13.40;75.90;;;;;;5104882;28;20244;-72
2021/05/06 02:23:37;;;;;;;0.32;0.32;;;13.40;76.80;;;;;;5099748;28;20250;-72
2021/05/06 02:26:03;;;;;;;0.57;0.57;;;13.40;76.80;;;;;;5104303;28;20173;-72
2021/05/06 02:28:28;;;;;;;0.43;0.43;;;13.30;76.20;;;;;;5101803;28;20178;-72
2021/05/06 02:30:54;;;;;;;4.05;0.68;;;13.40;76.40;;;;;;5100454;28;20264;-73
2021/05/06 02:33:20;;;;;;;1.33;0.40;;;13.30;76.80;;;;;;5100111;28;20184;-73
2021/05/06 02:35:45;;;;;;;0.40;0.40;;;13.30;76.60;;;;;;5101501;28;20177;-73
2021/05/06 02:38:11;;;;;;;1.55;0.50;;;13.30;77.10;;;;;;5095205;28;20210;-74
2021/05/06 02:40:37;;;;;;;0.43;0.43;;;13.20;77.30;;;;;;5101231;28;20192;-74
2021/05/06 02:43:04;;;;;;;0.47;0.47;;;13.10;77.80;;;;;;5099198;28;20189;-75
2021/05/06 02:45:30;;;;;;;0.90;0.40;;;13.10;77.90;;;;;;5101890;28;20178;-74
2021/05/06 02:47:55;;;;;;;0.85;0.43;;;13.10;77.80;;;;;;5101397;28;20189;-74
2021/05/06 02:50:22;;;;;;;1.38;0.50;;;13.00;77.70;;;;;;5099787;28;20183;-74
2021/05/06 02:53:01;;;;;;;0.40;0.40;;;13.00;77.40;;;;;;5097947;28;20213;-74
2021/05/06 03:04:01;;;;;;;0.45;0.45;;;12.90;77.70;;;;;;5070314;28;20197;-74
2021/05/06 03:06:29;;;;;;;0.38;0.38;;;12.90;77.50;;;;;;5070561;28;20190;-74
2021/05/06 03:08:59;;;;;;;0.47;0.47;;;12.90;77.50;;;;;;5072120;28;20196;-74
2021/05/06 03:25:04;;;;;;;0.45;0.45;;;12.80;78.50;;;;;;5066313;28;20193;-73
2021/05/06 03:27:32;;;;;;;0.47;0.47;;;12.70;79.00;;;;;;5067962;28;20564;-72
2021/05/06 03:30:11;;;;;;;0.50;0.50;;;12.70;78.90;;;;;;5068739;28;20232;-73
2021/05/06 03:34:38;;;;;;;0.88;0.40;;;12.70;78.90;;;;;;5086739;28;20289;-72
2021/05/06 04:18:49;;;;;;;0.73;0.73;;;12.90;80.00;;;;;;5097595;28;20190;-73
2021/05/06 04:26:52;;;;;;;0.68;0.50;;;13.00;79.80;;;;;;5100050;28;20730;-73
2021/05/06 04:37:23;;;;;;;2.30;0.65;;;13.30;78.70;;;;;;5102223;28;20227;-73
2021/05/06 04:39:52;;;;;;;0.70;0.70;;;13.30;78.90;;;;;;5099077;28;20750;-74
2021/05/06 04:55:52;;;;;;;0.55;0.55;;;13.70;77.60;;;;;;5103244;28;20193;-73
2021/05/06 05:06:20;;;;;;;1.17;0.77;;;13.90;76.80;;;;;;5102335;28;20185;-72
2021/05/06 05:13:57;;;;;;;4.72;0.43;;;14.10;76.10;;;;;;5101012;28;20195;-73
2021/05/06 05:27:22;;;;;;;1.83;0.55;;;14.50;75.10;;;;;;5033092;28;20230;-72
2021/05/06 05:29:48;;;;;;;0.90;0.52;;;14.60;74.70;;;;;;5021579;28;20306;-73
2021/05/06 05:32:15;;;;;;;0.70;0.57;;;14.70;74.70;;;;;;5036036;28;20731;-73
2021/05/06 05:34:47;;;;;;;0.90;0.90;;;14.70;74.80;;;;;;5030640;28;20184;-73
2021/05/06 05:37:19;;;;;;;5.38;0.50;;;14.80;74.70;;;;;;5030431;28;20191;-73
2021/05/06 05:40:13;;;;;;;5.40;0.80;;;14.80;74.40;;;;;;5029512;28;20227;-73
2021/05/06 05:55:55;;;;;;;0.60;0.60;;;15.40;72.00;;;;;;4984811;28;20574;-73
2021/05/06 05:58:21;;;;;;;1.33;0.55;;;15.50;72.10;;;;;;4970094;28;20197;-72
2021/05/06 06:00:47;;;;;;;1.20;0.70;;;15.50;72.30;;;;;;4982274;28;20269;-73
2021/05/06 06:03:13;;;;;;;0.60;0.60;;;15.60;72.80;;;;;;5008929;28;20311;-73
2021/05/06 06:05:39;;;;;;;0.88;0.52;;;15.70;72.30;;;;;;5025256;28;20523;-72
2021/05/06 06:08:06;;;;;;;1.05;0.57;;;15.70;72.50;;;;;;5023969;28;20267;-73
2021/05/06 06:10:32;;;;;;;1.90;0.60;;;15.80;72.40;;;;;;5026976;28;20215;-73
2021/05/06 06:12:57;;;;;;;0.88;0.55;;;15.90;72.30;;;;;;5024145;28;20385;-72
2021/05/06 06:17:50;;;;;;;1.55;0.50;;;16.00;72.60;;;;;;5021638;28;20189;-72
2021/05/06 06:20:16;;;;;;;0.73;0.60;;;16.00;72.40;;;;;;5025172;28;20199;-73
2021/05/06 06:22:43;;;;;;;2.63;0.68;;;16.10;72.50;;;;;;5025134;28;20223;-71
2021/05/06 06:25:09;;;;;;;0.95;0.52;;;16.10;71.40;;;;;;5005372;28;20196;-72
2021/05/06 06:27:35;;;;;;;2.05;0.57;;;16.20;71.50;;;;;;5025890;28;20237;-73
2021/05/06 06:30:02;;;;;;;0.60;0.60;;;16.20;71.60;;;;;;5021944;28;20192;-73
2021/05/06 06:32:28;;;;;;;1.13;0.50;;;16.30;71.50;;;;;;5044592;28;20190;-72
2021/05/06 06:34:54;;;;;;;0.60;0.60;;;16.30;71.20;;;;;;5070802;28;20243;-73
2021/05/06 06:37:20;;;;;;;3.15;0.70;;;16.30;71.20;;;;;;5092554;28;20182;-73
2021/05/06 06:39:46;;;;;;;2.05;0.50;;;16.40;71.40;;;;;;5096167;28;20724;-73
2021/05/06 06:42:12;;;;;;;0.82;0.70;;;16.40;71.40;;;;;;5090570;28;20225;-72
2021/05/06 06:44:38;;;;;;;0.50;0.50;;;16.50;71.10;;;;;;5095956;28;20178;-72
2021/05/06 06:47:06;;;;;;;0.95;0.77;;;16.50;70.70;;;;;;5089467;28;20182;-72
2021/05/06 06:49:36;;;;;;;2.83;0.60;;;16.50;70.60;;;;;;5095897;28;20173;-72
2021/05/06 06:52:04;;;;;;;0.65;0.52;;;16.50;70.60;;;;;;5088447;28;20193;-72
2021/05/06 06:54:29;;;;;;;0.68;0.68;;;16.60;70.30;;;;;;5088714;28;20196;-72
2021/05/06 06:56:56;;;;;;;0.80;0.77;;;16.60;70.10;;;;;;5096192;28;20181;-72
2021/05/06 06:59:22;;;;;;;1.45;0.60;;;16.60;70.10;;;;;;5090927;28;20189;-71
2021/05/06 07:01:48;;;;;;;1.45;0.60;;;16.70;70.70;;;;;;5095108;28;20255;-72
2021/05/06 07:04:14;;;;;;;0.55;0.50;;;16.70;70.70;;;;;;5093370;28;20328;-73
2021/05/06 07:06:40;;;;;;;1.50;0.55;;;16.70;70.60;;;;;;5098058;28;20185;-73
2021/05/06 07:09:08;;;;;;;3.72;0.50;;;16.80;70.60;;;;;;5092365;28;20185;-73
2021/05/06 07:11:34;;;;;;;1.27;0.60;;;16.80;70.50;;;;;;5091925;28;20179;-73
2021/05/06 07:14:00;;;;;;;1.55;0.73;;;16.80;70.50;;;;;;5090349;28;20254;-74
2021/05/06 07:16:26;;;;;;;0.60;0.60;;;16.70;70.30;;;;;;5094646;28;20189;-72
2021/05/06 07:18:52;;;;;;;1.48;0.40;;;16.70;69.90;;;;;;5093228;28;20259;-72
2021/05/06 07:21:17;;;;;;;0.40;0.40;;;16.70;70.10;;;;;;5092145;28;20209;-73
2021/05/06 07:23:43;;;;;;;0.50;0.50;;;16.80;70.50;;;;;;5091507;28;20243;-72
2021/05/06 07:26:09;;;;;;;2.97;0.60;;;16.80;70.50;;;;;;5093571;28;20239;-73
2021/05/06 07:28:39;;;;;;;1.13;0.63;;;16.90;70.20;;;;;;5089643;28;20234;-72
2021/05/06 07:31:07;;;;;;;0.70;0.70;;;16.90;70.20;;;;;;5093941;28;20186;-73
2021/05/06 07:33:33;;;;;;;0.50;0.50;;;17.00;70.60;;;;;;5093007;28;20185;-74
2021/05/06 07:36:01;;;;;;;0.50;0.50;;;17.10;70.10;;;;;;5095632;28;20289;-75
2021/05/06 07:38:29;;;;;;;1.27;0.70;;;17.10;70.00;;;;;;5098869;28;20173;-73
2021/05/06 07:40:57;;;;;;;0.88;0.65;;;17.20;70.40;;;;;;5092323;28;20244;-76
2021/05/06 07:43:23;;;;;;;0.63;0.63;;;17.20;70.20;;;;;;5096275;28;20234;-76
2021/05/06 07:45:49;;;;;;;3.90;0.68;;;17.30;69.90;;;;;;5092946;28;20690;-72
2021/05/06 07:48:14;;;;;;;0.50;0.50;;;17.40;69.90;;;;;;5098387;28;20182;-72
2021/05/06 07:50:40;;;;;;;2.67;0.90;;;17.40;69.70;;;;;;5099134;28;20178;-74
2021/05/06 07:53:09;;;;;;;0.95;0.73;;;17.40;70.30;;;;;;5096728;28;20575;-74
2021/05/06 07:55:35;;;;;;;1.27;0.70;;;17.50;70.40;;;;;;5090594;28;20177;-74
2021/05/06 07:58:03;;;;;;;0.82;0.82;;;17.60;70.00;;;;;;5101226;28;20236;-73
2021/05/06 08:00:29;;;;;;;1.42;0.60;;;17.70;70.00;;;;;;5097894;28;20174;-73
2021/05/06 08:02:56;;;;;;;0.63;0.60;;;17.80;70.20;;;;;;5094940;28;20266;-74
2021/05/06 08:05:22;;;;;;;0.80;0.80;;;17.80;69.30;;;;;;5099625;28;20273;-75
2021/05/06 08:07:49;;;;;;;2.97;0.65;;;17.80;69.20;;;;;;5099133;28;20208;-75
2021/05/06 08:10:16;;;;;;;0.60;0.60;;;17.90;70.00;;;;;;5098149;28;20170;-75
2021/05/06 08:12:43;;;;;;;2.55;1.08;;;18.00;69.60;;;;;;5098956;28;20210;-74
2021/05/06 08:15:10;;;;;;;0.80;0.60;;;18.10;69.50;;;;;;5100079;28;20181;-73
2021/05/06 08:17:41;;;;;;;1.65;0.60;;;18.20;68.90;;;;;;5102148;28;20181;-74
2021/05/06 08:20:13;;;;;;;2.22;0.80;;;18.20;69.00;;;;;;5099203;28;20177;-75
2021/05/06 08:22:39;;;;;;;2.53;0.60;;;18.30;68.70;;;;;;5101851;28;20289;-74
2021/05/06 08:25:07;;;;;;;1.95;0.60;;;18.40;68.40;;;;;;5100634;28;20182;-75
2021/05/06 08:27:34;;;;;;;3.05;0.82;;;18.40;68.30;;;;;;5094559;28;20221;-75
2021/05/06 08:30:00;;;;;;;1.30;0.65;;;18.50;68.50;;;;;;5096685;28;20196;-75
2021/05/06 08:32:27;;;;;;;0.60;0.60;;;18.60;68.60;;;;;;5105471;28;20188;-75
2021/05/06 08:34:53;;;;;;;0.80;0.80;;;18.70;68.20;;;;;;5097709;28;20700;-76
2021/05/06 08:37:19;;;;;;;6.40;0.65;;;18.80;68.00;;;;;;5096336;28;20182;-75
2021/05/06 08:39:45;;;;;;;1.73;0.70;;;18.90;67.70;;;;;;5098539;28;20178;-75
2021/05/06 08:42:12;;;;;;;6.25;0.88;;;18.90;66.50;;;;;;5094842;28;20217;-75
2021/05/06 08:44:40;;;;;;;0.60;0.60;;;19.00;67.10;;;;;;5094695;28;20627;-75
2021/05/06 08:47:11;;;;;;;2.63;0.98;;;19.00;66.70;;;;;;5104196;28;20192;-74
2021/05/06 08:49:38;;;;;;;2.05;0.80;;;19.00;67.30;;;;;;5103987;28;20189;-74
2021/05/06 08:52:05;;;;;;;2.47;0.70;;;19.20;67.30;;;;;;5103108;28;20858;-74
2021/05/06 08:54:31;;;;;;;1.63;0.80;;;19.40;66.50;;;;;;5104348;28;21859;-74
2021/05/06 08:56:58;;;;;;;1.00;0.93;;;19.60;67.20;;;;;;5104647;28;20182;-74
2021/05/06 08:59:25;;;;;;;0.98;0.70;;;19.70;66.20;;;;;;5107352;28;20289;-74
2021/05/06 09:01:52;;;;;;;0.70;0.70;;;19.90;65.80;;;;;;5103604;28;20214;-74
2021/05/06 09:04:18;;;;;;;0.60;0.60;;;20.10;65.70;;;;;;5104995;28;20719;-74
2021/05/06 09:06:57;;;;;;;0.70;0.70;;;20.50;65.00;;;;;;5104244;28;20595;-74
2021/05/06 09:09:27;;;;;;;1.75;0.60;;;20.70;64.40;;;;;;5102093;28;20257;-75
2021/05/06 09:11:57;;;;;;;3.20;0.45;;;21.00;63.00;;;;;;5102173;28;20662;-75
2021/05/06 09:14:39;;;;;;;2.92;0.57;;;21.20;61.40;;;;;;5105527;28;20242;-75
2021/05/06 09:17:22;;;;;;;0.65;0.65;;;21.20;60.20;;;;;;5103371;28;20684;-75
2021/05/06 09:19:57;;;;;;;2.83;0.70;;;21.10;60.90;;;;;;5103295;28;20189;-74
2021/05/06 09:22:37;;;;;;;0.50;0.40;;;21.10;60.50;;;;;;5097529;28;20403;-74
2021/05/06 09:25:25;;;;;;;0.63;0.63;;;21.00;60.50;;;;;;5093158;28;20192;-75
2021/05/06 09:28:06;;;;;;;0.77;0.65;;;21.10;60.40;;;;;;5093450;28;20189;-74
2021/05/06 09:30:44;;;;;;;0.40;0.40;;;21.30;60.30;;;;;;5099690;28;20181;-75
2021/05/06 09:33:10;;;;;;;0.65;0.65;;;21.50;59.70;;;;;;5099807;28;20200;-75
2021/05/06 09:36:12;;;;;;;0.50;0.50;;;21.70;59.60;;;;;;5100967;28;20259;-74
2021/05/06 09:38:42;;;;;;;2.80;0.60;;;22.20;58.10;;;;;;5097964;28;20182;-74
2021/05/06 09:41:08;;;;;;;1.48;0.50;;;22.60;58.00;;;;;;5095991;28;20568;-75
2021/05/06 09:43:40;;;;;;;0.45;0.45;;;23.10;57.00;;;;;;5093314;28;20189;-73
2021/05/06 09:46:35;;;;;;;0.68;0.68;;;23.60;55.90;;;;;;5098882;28;20191;-72
2021/05/06 09:49:07;;;;;;;0.52;0.45;;;24.20;54.80;;;;;;5102301;28;20185;-72
2021/05/06 09:51:36;;;;;;;0.65;0.50;;;24.60;53.60;;;;;;5102688;28;20677;-72
2021/05/06 09:54:04;;;;;;;0.40;0.40;;;25.00;52.50;;;;;;5100715;28;20193;-71
2021/05/06 09:57:01;;;;;;;2.72;0.50;;;25.40;52.40;;;;;;5097704;28;20182;-71
2021/05/06 09:59:37;;;;;;;5.90;0.50;;;26.10;51.60;;;;;;5100123;28;20196;-71
2021/05/06 10:02:17;;;;;;;0.45;0.45;;;27.10;50.60;;;;;;5097222;28;20266;-72
2021/05/06 10:04:45;;;;;;;0.40;0.40;;;27.90;50.10;;;;;;5098429;28;20188;-73
2021/05/06 10:07:25;;;;;;;0.47;0.47;;;28.70;48.30;;;;;;5096928;28;20216;-72
2021/05/06 10:10:01;;;;;;;1.27;0.50;;;29.40;46.60;;;;;;5099224;28;20192;-71
2021/05/06 10:12:31;;;;;;;1.15;0.40;;;30.00;47.10;;;;;;5097542;28;20184;-71
2021/05/06 10:14:58;;;;;;;0.70;0.70;;;30.60;46.40;;;;;;5097548;28;20539;-72
2021/05/06 10:17:26;;;;;;;1.45;0.60;;;31.20;46.30;;;;;;5100294;28;21616;-72
2021/05/06 10:19:53;;;;;;;0.50;0.50;;;31.70;44.60;;;;;;5093799;28;20191;-72
2021/05/06 10:22:22;;;;;;;0.50;0.50;;;32.20;43.90;;;;;;5094902;28;20209;-72
2021/05/06 10:24:48;;;;;;;0.93;0.63;;;32.60;44.70;;;;;;5088811;28;20268;-73
2021/05/06 10:27:16;;;;;;;0.50;0.50;;;32.80;43.50;;;;;;5098506;28;20185;-73
2021/05/06 10:29:42;;;;;;;4.78;0.52;;;32.90;44.90;;;;;;5095380;28;20659;-73
2021/05/06 10:32:11;;;;;;;2.25;0.60;;;32.50;43.60;;;;;;5099904;28;20243;-72
2021/05/06 10:34:38;;;;;;;3.30;0.50;;;31.90;43.60;;;;;;5097828;28;20178;-72
2021/05/06 10:37:04;;;;;;;0.47;0.47;;;31.20;44.30;;;;;;5101377;28;20192;-72
2021/05/06 10:39:45;;;;;;;2.38;0.80;;;30.90;46.70;;;;;;5101784;28;20904;-72
2021/05/06 10:42:28;;;;;;;1.65;0.60;;;31.10;44.40;;;;;;5099252;28;20219;-72
2021/05/06 10:45:21;;;;;;;2.13;0.50;;;31.70;44.50;;;;;;5099870;28;20238;-72
2021/05/06 10:48:05;;;;;;;3.08;0.50;;;32.30;43.90;;;;;;5097699;28;20189;-74
2021/05/06 10:50:39;;;;;;;0.70;0.30;;;32.80;42.40;;;;;;5096094;28;20186;-71
2021/05/06 10:53:07;;;;;;;0.32;0.32;;;33.00;43.40;;;;;;5103997;28;20204;-74
2021/05/06 10:55:48;;;;;;;1.85;0.40;;;33.40;42.00;;;;;;5099970;28;20184;-72
2021/05/06 10:58:26;;;;;;;0.40;0.40;;;34.00;41.90;;;;;;5098398;28;20169;-73
2021/05/06 11:01:01;;;;;;;0.40;0.40;;;34.40;42.30;;;;;;5100025;28;20178;-75
2021/05/06 11:03:28;;;;;;;0.90;0.40;;;34.30;41.50;;;;;;5099641;28;21911;-74
2021/05/06 11:05:54;;;;;;;0.50;0.50;;;34.20;42.10;;;;;;5095922;28;20201;-73
2021/05/06 11:08:22;;;;;;;0.63;0.50;;;34.50;41.60;;;;;;5099692;28;20213;-73
2021/05/06 11:10:48;;;;;;;0.43;0.40;;;34.90;41.70;;;;;;5102618;28;20174;-74
2021/05/06 11:13:15;;;;;;;0.50;0.50;;;35.40;42.40;;;;;;5098980;28;20959;-73
2021/05/06 11:15:42;;;;;;;0.40;0.40;;;35.70;41.70;;;;;;5098165;28;20178;-74
2021/05/06 11:18:10;;;;;;;0.50;0.50;;;35.60;41.60;;;;;;5098092;28;20969;-74
2021/05/06 11:20:36;;;;;;;0.57;0.57;;;35.50;42.60;;;;;;5097117;28;20176;-74
2021/05/06 11:23:02;;;;;;;0.40;0.40;;;35.50;42.20;;;;;;5102363;28;20218;-73
2021/05/06 11:25:28;;;;;;;0.50;0.50;;;35.40;41.30;;;;;;5103599;28;20185;-73
2021/05/06 11:28:02;;;;;;;0.63;0.43;;;35.10;41.40;;;;;;5096186;28;20181;-73
2021/05/06 11:30:34;;;;;;;3.35;0.55;;;34.90;41.60;;;;;;5095369;28;20222;-74
2021/05/06 11:33:19;;;;;;;0.40;0.40;;;34.50;42.10;;;;;;5093470;28;20189;-74
2021/05/06 11:36:01;;;;;;;1.33;0.60;;;34.10;41.30;;;;;;5102986;28;20263;-73
2021/05/06 11:38:39;;;;;;;0.75;0.52;;;33.90;41.90;;;;;;5090643;28;20174;-75
2021/05/06 11:41:16;;;;;;;0.40;0.40;;;34.30;43.00;;;;;;5096478;28;20234;-74
2021/05/06 11:43:45;;;;;;;0.40;0.40;;;34.90;42.80;;;;;;5098500;28;20750;-75
2021/05/06 11:46:23;;;;;;;2.38;0.40;;;35.10;42.20;;;;;;5097576;28;20184;-73
2021/05/06 11:48:59;;;;;;;3.03;0.52;;;34.90;43.10;;;;;;5096935;28;20196;-74
2021/05/06 11:51:47;;;;;;;2.70;0.80;;;35.10;42.30;;;;;;5100208;28;20565;-74
2021/05/06 11:54:15;;;;;;;0.40;0.40;;;35.50;41.30;;;;;;5081657;28;20189;-74
2021/05/06 11:56:54;;;;;;;0.55;0.55;;;35.80;41.50;;;;;;5099938;28;20176;-74
2021/05/06 11:59:21;;;;;;;1.27;0.60;;;36.20;41.20;;;;;;5098371;28;20189;-73
2021/05/06 12:01:47;;;;;;;5.93;0.50;;;36.50;41.80;;;;;;5097364;28;20607;-74
2021/05/06 12:04:22;;;;;;;0.40;0.40;;;36.90;41.40;;;;;;5102315;28;20185;-74
2021/05/06 12:06:48;;;;;;;7.90;0.75;;;37.20;40.40;;;;;;5101112;28;20272;-74
2021/05/06 12:09:25;;;;;;;1.50;0.40;;;37.70;40.10;;;;;;5102777;28;20894;-73
2021/05/06 12:11:51;;;;;;;0.47;0.38;;;38.30;39.00;;;;;;5103099;28;20210;-73
2021/05/06 12:14:38;;;;;;;0.77;0.60;;;38.60;38.80;;;;;;5106210;28;20195;-74
2021/05/06 12:17:05;;;;;;;3.10;0.47;;;38.70;38.40;;;;;;5101989;28;20583;-74
2021/05/06 12:19:31;;;;;;;0.50;0.50;;;38.20;37.60;;;;;;5101263;28;20179;-72
2021/05/06 12:21:59;;;;;;;0.57;0.57;;;37.20;40.10;;;;;;5100741;28;20192;-73
2021/05/06 12:24:24;;;;;;;0.45;0.40;;;37.30;39.10;;;;;;5105162;28;20212;-73
2021/05/06 12:26:50;;;;;;;1.75;0.50;;;37.60;40.80;;;;;;5103185;28;20623;-72
2021/05/06 12:29:24;;;;;;;1.95;0.60;;;37.60;40.60;;;;;;5101173;28;20538;-73
2021/05/06 12:31:51;;;;;;;1.60;0.45;;;37.40;39.90;;;;;;5103740;28;20938;-73
2021/05/06 12:34:22;;;;;;;1.15;0.40;;;37.50;38.80;;;;;;5105946;28;20227;-73
2021/05/06 12:36:49;;;;;;;0.32;0.32;;;37.60;39.90;;;;;;5105212;28;20884;-73
2021/05/06 12:39:16;;;;;;;2.25;0.60;;;37.80;38.70;;;;;;5101571;28;20213;-74
2021/05/06 12:41:56;;;;;;;1.50;0.40;;;38.00;39.80;;;;;;5102156;28;20245;-73
2021/05/06 12:44:37;;;;;;;0.40;0.40;;;38.00;38.90;;;;;;5102873;28;20180;-76
2021/05/06 12:47:31;;;;;;;0.52;0.40;;;38.40;38.60;;;;;;5100666;28;20181;-75
2021/05/06 12:50:11;;;;;;;0.40;0.40;;;39.10;37.80;;;;;;5098260;28;20196;-75
2021/05/06 12:52:42;;;;;;;1.00;0.60;;;39.50;38.20;;;;;;5102027;28;20207;-74
2021/05/06 12:55:30;;;;;;;0.70;0.40;;;39.30;37.80;;;;;;5099824;28;20189;-75
2021/05/06 12:58:16;;;;;;;1.95;0.40;;;38.80;37.40;;;;;;5102700;28;20553;-75
2021/05/06 13:00:42;;;;;;;0.50;0.50;;;38.60;37.40;;;;;;5105439;28;20161;-75
2021/05/06 13:03:11;;;;;;;0.50;0.43;;;38.30;38.10;;;;;;5103083;28;20185;-75
2021/05/06 13:05:48;;;;;;;0.40;0.40;;;38.30;38.50;;;;;;5104550;28;20177;-75
2021/05/06 13:08:15;;;;;;;0.93;0.45;;;38.50;37.80;;;;;;5098759;28;20185;-75
2021/05/06 13:10:43;;;;;;;0.70;0.32;;;38.80;39.60;;;;;;5103548;28;20209;-76
2021/05/06 13:13:11;;;;;;;0.40;0.40;;;38.50;37.50;;;;;;5099854;28;20240;-77
2021/05/06 13:15:53;;;;;;;0.65;0.40;;;38.10;38.60;;;;;;5099891;28;20208;-77
2021/05/06 13:18:20;;;;;;;0.25;0.25;;;37.90;37.80;;;;;;5097265;28;20182;-77
2021/05/06 13:20:48;;;;;;;1.85;0.60;;;37.70;37.90;;;;;;5101932;28;20180;-77
2021/05/06 13:23:16;;;;;;;0.35;0.35;;;37.90;38.50;;;;;;5102461;28;20322;-76
2021/05/06 13:25:43;;;;;;;1.10;0.40;;;38.00;38.50;;;;;;5099023;28;20294;-76
2021/05/06 13:28:11;;;;;;;0.57;0.35;;;37.90;38.80;;;;;;5101105;28;20181;-76
2021/05/06 13:30:36;;;;;;;2.00;0.50;;;37.40;38.30;;;;;;5101040;28;20210;-76
2021/05/06 13:33:20;;;;;;;0.30;0.30;;;37.00;39.60;;;;;;5099366;28;20213;-76
2021/05/06 13:36:05;;;;;;;0.70;0.30;;;36.90;37.90;;;;;;5078973;28;20689;-76
2021/05/06 13:39:02;;;;;;;4.40;0.50;;;37.00;37.60;;;;;;5096310;28;20185;-77
2021/05/06 13:41:33;;;;;;;0.30;0.30;;;37.40;37.50;;;;;;5102845;28;20177;-76
2021/05/06 13:44:01;;;;;;;0.30;0.30;;;37.70;38.50;;;;;;5096353;28;20177;-77
2021/05/06 13:46:30;;;;;;;0.40;0.40;;;37.90;38.10;;;;;;5096808;28;20264;-75
2021/05/06 13:48:56;;;;;;;0.38;0.38;;;38.10;37.30;;;;;;5098340;28;20183;-76
2021/05/06 13:51:23;;;;;;;2.35;0.30;;;38.00;37.60;;;;;;5099511;28;20178;-77
2021/05/06 13:53:50;;;;;;;1.00;0.40;;;38.00;37.80;;;;;;5099211;28;20190;-77
2021/05/06 13:56:16;;;;;;;0.40;0.40;;;38.00;37.30;;;;;;5102642;28;20207;-77
2021/05/06 13:58:42;;;;;;;0.32;0.32;;;38.10;37.40;;;;;;5099826;28;20716;-77
2021/05/06 14:01:10;;;;;;;4.40;0.35;;;38.30;37.10;;;;;;5095885;28;20551;-75
2021/05/06 14:03:37;;;;;;;0.95;0.50;;;38.50;37.00;;;;;;5101990;28;20315;-76
2021/05/06 14:06:04;;;;;;;0.50;0.50;;;38.60;37.40;;;;;;5100108;28;20204;-76
2021/05/06 14:08:30;;;;;;;0.85;0.30;;;38.40;37.30;;;;;;5094383;28;20173;-74
2021/05/06 14:10:57;;;;;;;0.32;0.32;;;38.00;36.60;;;;;;5101537;28;20572;-74
2021/05/06 14:13:23;;;;;;;3.10;0.45;;;37.90;37.20;;;;;;5097865;28;20305;-74
2021/05/06 14:15:49;;;;;;;0.28;0.28;;;37.20;38.00;;;;;;5096044;28;20181;-73
2021/05/06 14:18:16;;;;;;;0.47;0.47;;;36.60;37.90;;;;;;5104945;28;20189;-74
2021/05/06 14:20:43;;;;;;;0.47;0.30;;;36.30;37.50;;;;;;5097262;28;20258;-74
2021/05/06 14:23:10;;;;;;;0.35;0.30;;;35.80;37.40;;;;;;5100573;28;20178;-74
2021/05/06 14:25:37;;;;;;;0.28;0.28;;;35.70;37.10;;;;;;5097191;28;20268;-74
2021/05/06 14:28:08;;;;;;;0.70;0.25;;;35.80;36.70;;;;;;5099845;28;20177;-74
2021/05/06 14:30:34;;;;;;;0.32;0.30;;;35.90;36.60;;;;;;5094569;28;20208;-74
2021/05/06 14:33:00;;;;;;;6.32;0.50;;;36.10;36.80;;;;;;5096637;28;20289;-74
2021/05/06 14:35:26;;;;;;;3.03;0.25;;;36.30;38.30;;;;;;5094222;28;20255;-74
2021/05/06 14:37:52;;;;;;;0.30;0.30;;;36.40;38.40;;;;;;5093355;28;20222;-73
2021/05/06 14:40:18;;;;;;;1.85;0.30;;;36.30;36.10;;;;;;5095038;28;20208;-74
2021/05/06 14:42:44;;;;;;;0.25;0.25;;;36.40;35.80;;;;;;5099125;28;20197;-73
2021/05/06 14:45:11;;;;;;;1.10;0.30;;;36.40;36.50;;;;;;5100569;28;20264;-73
2021/05/06 14:47:38;;;;;;;0.95;0.40;;;36.20;36.10;;;;;;5100982;28;20264;-73
2021/05/06 14:50:08;;;;;;;0.20;0.20;;;36.00;36.40;;;;;;5102908;28;20181;-73
2021/05/06 14:52:34;;;;;;;1.85;0.40;;;36.00;36.30;;;;;;5100713;28;20651;-72
2021/05/06 14:55:00;;;;;;;0.35;0.35;;;35.90;36.50;;;;;;5103306;28;20189;-72
2021/05/06 14:57:26;;;;;;;0.65;0.30;;;35.80;37.10;;;;;;5100337;28;20974;-73
2021/05/06 14:59:52;;;;;;;2.47;0.35;;;35.70;36.50;;;;;;5065931;28;20185;-73
2021/05/06 15:02:19;;;;;;;7.18;0.50;;;35.60;36.70;;;;;;5100262;28;20719;-74
2021/05/06 15:04:44;;;;;;;0.35;0.30;;;35.50;36.70;;;;;;5102671;28;20207;-74
2021/05/06 15:07:10;;;;;;;2.05;0.30;;;35.40;36.60;;;;;;5099140;28;20722;-73
2021/05/06 15:09:36;;;;;;;0.30;0.30;;;35.20;37.30;;;;;;5099022;28;20192;-74
2021/05/06 15:12:03;;;;;;;0.30;0.30;;;34.80;36.80;;;;;;5096356;28;20689;-74
2021/05/06 15:14:29;;;;;;;3.40;0.40;;;34.50;38.00;;;;;;5102090;28;20213;-74
2021/05/06 15:16:55;;;;;;;0.70;0.40;;;34.30;37.70;;;;;;5100115;28;20661;-74
2021/05/06 15:19:22;;;;;;;0.20;0.20;;;34.30;37.90;;;;;;5101124;28;20210;-73
2021/05/06 15:21:48;;;;;;;0.20;0.20;;;34.30;37.30;;;;;;5098879;28;20201;-74
2021/05/06 15:24:13;;;;;;;0.30;0.30;;;34.40;37.60;;;;;;5102583;28;20181;-73
2021/05/06 15:26:40;;;;;;;1.17;0.32;;;34.30;37.60;;;;;;5099572;28;20181;-74
2021/05/06 15:29:07;;;;;;;0.30;0.30;;;34.10;37.20;;;;;;5102451;28;20177;-73
2021/05/06 15:31:35;;;;;;;0.75;0.40;;;33.80;37.40;;;;;;5099314;28;20254;-74
2021/05/06 15:34:01;;;;;;;1.15;0.40;;;33.60;37.80;;;;;;5102941;28;20181;-74
2021/05/06 15:36:45;;;;;;;1.85;0.40;;;33.50;38.50;;;;;;5098687;28;20177;-73
2021/05/06 15:39:11;;;;;;;0.88;0.50;;;33.40;38.70;;;;;;5102185;28;20177;-73
2021/05/06 15:41:37;;;;;;;1.02;0.30;;;33.00;38.30;;;;;;5099689;28;20184;-72
2021/05/06 15:44:03;;;;;;;0.70;0.28;;;32.80;39.60;;;;;;5100566;28;20188;-73
2021/05/06 15:46:32;;;;;;;0.32;0.30;;;32.50;38.40;;;;;;5100644;28;20181;-73
2021/05/06 15:48:59;;;;;;;1.05;0.40;;;32.40;39.40;;;;;;5101352;28;20184;-73
2021/05/06 15:51:25;;;;;;;0.40;0.40;;;32.20;39.10;;;;;;5099873;28;20274;-73
2021/05/06 15:53:50;;;;;;;0.30;0.30;;;32.00;38.90;;;;;;5101434;28;20961;-73
2021/05/06 15:56:16;;;;;;;1.48;0.40;;;32.00;38.90;;;;;;5102867;28;20569;-74
2021/05/06 15:58:42;;;;;;;0.82;0.40;;;32.00;39.20;;;;;;5102760;28;20281;-73
2021/05/06 16:01:07;;;;;;;0.32;0.30;;;31.70;40.00;;;;;;5100409;28;20173;-73
2021/05/06 16:03:48;;;;;;;1.77;0.47;;;31.60;39.90;;;;;;5101873;28;20186;-73
2021/05/06 16:06:14;;;;;;;3.30;0.40;;;31.50;40.00;;;;;;5101938;28;20184;-73
2021/05/06 16:08:40;;;;;;;0.95;0.40;;;31.30;40.10;;;;;;5099052;28;20188;-73
2021/05/06 16:11:05;;;;;;;0.30;0.30;;;31.10;40.60;;;;;;5102465;28;20209;-73
2021/05/06 16:13:31;;;;;;;1.38;0.30;;;30.90;40.70;;;;;;5098519;28;20217;-73
2021/05/06 16:15:57;;;;;;;0.28;0.28;;;30.60;40.80;;;;;;5100268;28;20185;-74
2021/05/06 16:18:23;;;;;;;0.20;0.20;;;30.20;41.50;;;;;;5097096;28;20243;-72
2021/05/06 16:20:50;;;;;;;2.53;0.43;;;29.90;41.40;;;;;;5100209;28;20268;-72
2021/05/06 16:23:16;;;;;;;0.20;0.20;;;29.60;41.30;;;;;;5090344;28;20658;-72
2021/05/06 16:25:42;;;;;;;0.40;0.40;;;29.40;41.20;;;;;;5098561;28;20178;-73
2021/05/06 16:28:11;;;;;;;0.30;0.30;;;29.10;41.70;;;;;;5096641;28;20193;-71
2021/05/06 16:30:37;;;;;;;0.32;0.32;;;28.90;42.10;;;;;;5096845;28;20178;-74